Bartlett, North Dakota
Current Conditions -  °F | °C
As of 12:35 PM on Thursday 27 Nov 2014 (Local Time) from KDVL Reporting Station
Few Clouds Few Clouds  
Wind Chill: -12°   Ceiling: Unl
Heat Index:   Visibility: 10mi
Dew Point: -9°   Wind: 10mph
Humidity: 56%   Direction: 170°S
Pressure: 30.25"   Gusts: NA
Location:  48.021°N, 98.3447°W
Report Text: KDVL 271835Z AUTO 17009KT 10SM FEW110 M16/M23 A3025 RMK AO1
Loading
Personal Weather Stations






























Interactive Weather Map New forecast layout! Learn more

10-Day Weather Forecast

Advertisements
Track Severe Weather on mobile